Time;durP1;ratioP1;P1;durP2;ratioP2;P2;SDS_P1;SDS_P2;PMS_P1;PMS_P2;Temp;Humidity;BMP_temperature;BMP_pressure;BME280_temperature;BME280_humidity;BME280_pressure;Samples;Min_cycle;Max_cycle;Signal;HPM_P1;HPM_P2
2022/08/19 00:01:45;;;;;;;0.10;0.10;;;;;;;;;;4877142;29;20044;-91
2022/08/19 00:04:12;;;;;;;0.10;0.10;;;;;;;;;;4893883;29;20350;-91
2022/08/19 00:06:38;;;;;;;0.10;0.10;;;;;;;;;;4877934;29;20080;-92
2022/08/19 00:09:05;;;;;;;0.10;0.10;;;;;;;;;;4893058;29;20037;-90
2022/08/19 00:11:31;;;;;;;0.10;0.10;;;;;;;;;;4892342;29;20077;-90
2022/08/19 00:13:57;;;;;;;0.10;0.10;;;;;;;;;;4877025;29;20049;-90
2022/08/19 00:16:23;;;;;;;0.10;0.10;;;;;;;;;;4877468;29;20045;-90
2022/08/19 00:18:49;;;;;;;0.10;0.10;;;;;;;;;;4880778;29;20064;-91
2022/08/19 00:21:15;;;;;;;0.10;0.10;;;;;;;;;;4881351;29;20047;-91
2022/08/19 00:23:42;;;;;;;0.10;0.10;;;;;;;;;;4912023;29;20045;-91
2022/08/19 00:26:08;;;;;;;0.10;0.10;;;;;;;;;;4895913;29;20055;-90
2022/08/19 00:28:35;;;;;;;0.10;0.10;;;;;;;;;;4896484;29;20040;-90
2022/08/19 00:31:01;;;;;;;0.10;0.10;;;;;;;;;;4896523;29;20068;-89
2022/08/19 00:33:28;;;;;;;0.10;0.10;;;;;;;;;;4880802;29;20168;-90
2022/08/19 00:35:55;;;;;;;0.10;0.10;;;;;;;;;;4880449;29;20091;-90
2022/08/19 00:38:22;;;;;;;0.10;0.10;;;;;;;;;;4880263;29;20212;-89
2022/08/19 00:40:49;;;;;;;0.10;0.10;;;;;;;;;;4880530;29;20053;-88
2022/08/19 00:43:18;;;;;;;0.10;0.10;;;;;;;;;;4880535;29;20080;-89
2022/08/19 00:45:44;;;;;;;0.10;0.10;;;;;;;;;;4895713;29;20056;-89
2022/08/19 00:48:10;;;;;;;0.10;0.10;;;;;;;;;;4879941;29;20472;-89
2022/08/19 00:50:36;;;;;;;0.10;0.10;;;;;;;;;;4880108;29;20365;-89
2022/08/19 00:53:03;;;;;;;0.10;0.10;;;;;;;;;;4880014;29;20518;-89
2022/08/19 00:55:29;;;;;;;0.10;0.10;;;;;;;;;;4879917;29;20045;-89
2022/08/19 00:57:56;;;;;;;0.10;0.10;;;;;;;;;;4895754;29;20052;-89
2022/08/19 01:00:22;;;;;;;0.10;0.10;;;;;;;;;;4895707;29;20049;-88
2022/08/19 01:02:48;;;;;;;0.20;0.20;;;;;;;;;;4895983;29;20073;-89
2022/08/19 01:05:15;;;;;;;0.10;0.10;;;;;;;;;;4895477;29;20452;-89
2022/08/19 01:07:43;;;;;;;0.10;0.10;;;;;;;;;;4895396;29;20037;-89
2022/08/19 01:10:10;;;;;;;0.10;0.10;;;;;;;;;;4895476;29;20041;-89
2022/08/19 01:12:36;;;;;;;0.10;0.10;;;;;;;;;;4895220;29;20041;-89
2022/08/19 01:15:02;;;;;;;0.10;0.10;;;;;;;;;;4879636;29;20053;-89
2022/08/19 01:17:28;;;;;;;0.10;0.10;;;;;;;;;;4895341;29;20045;-89
2022/08/19 01:19:54;;;;;;;0.10;0.10;;;;;;;;;;4895146;29;20491;-89
2022/08/19 01:22:20;;;;;;;0.10;0.10;;;;;;;;;;4895256;29;20385;-88
2022/08/19 01:24:46;;;;;;;0.10;0.10;;;;;;;;;;4910709;29;20049;-88
2022/08/19 01:27:12;;;;;;;0.10;0.10;;;;;;;;;;4895331;29;20048;-88
2022/08/19 01:29:39;;;;;;;0.10;0.10;;;;;;;;;;4879515;29;20052;-89
2022/08/19 01:32:05;;;;;;;0.10;0.10;;;;;;;;;;4895171;29;20089;-89
2022/08/19 01:34:33;;;;;;;0.10;0.10;;;;;;;;;;4879353;29;20070;-89
2022/08/19 01:37:01;;;;;;;0.10;0.10;;;;;;;;;;4879221;29;20045;-90
2022/08/19 01:39:28;;;;;;;0.10;0.10;;;;;;;;;;4879470;29;20140;-90
2022/08/19 01:41:54;;;;;;;0.10;0.10;;;;;;;;;;4879743;29;20096;-93
2022/08/19 01:44:23;;;;;;;0.10;0.10;;;;;;;;;;4879479;29;20056;-93
2022/08/19 01:46:49;;;;;;;0.10;0.10;;;;;;;;;;4879224;29;20060;-92
2022/08/19 01:49:15;;;;;;;0.10;0.10;;;;;;;;;;4895179;29;20049;-92
2022/08/19 01:51:41;;;;;;;0.10;0.10;;;;;;;;;;4879871;29;20092;-92
2022/08/19 01:54:08;;;;;;;0.10;0.10;;;;;;;;;;4879464;29;20076;-92
2022/08/19 01:56:34;;;;;;;0.10;0.10;;;;;;;;;;4879220;29;20052;-91
2022/08/19 01:59:01;;;;;;;0.10;0.10;;;;;;;;;;4879503;29;20041;-91
2022/08/19 02:01:27;;;;;;;0.10;0.10;;;;;;;;;;4863594;29;20088;-91
2022/08/19 02:03:54;;;;;;;0.10;0.10;;;;;;;;;;4878746;29;20045;-92
2022/08/19 02:06:20;;;;;;;0.10;0.10;;;;;;;;;;4880004;29;20404;-91
2022/08/19 02:08:47;;;;;;;0.10;0.10;;;;;;;;;;4894952;29;20048;-91
2022/08/19 02:11:19;;;;;;;0.10;0.10;;;;;;;;;;4894478;29;20045;-91
2022/08/19 02:13:45;;;;;;;0.10;0.10;;;;;;;;;;4879048;29;20049;-91
2022/08/19 02:16:11;;;;;;;0.10;0.10;;;;;;;;;;4879126;29;20143;-91
2022/08/19 02:18:37;;;;;;;0.10;0.10;;;;;;;;;;4879065;29;20086;-93
2022/08/19 02:21:03;;;;;;;0.10;0.10;;;;;;;;;;4878969;29;20401;-92
2022/08/19 02:23:29;;;;;;;0.10;0.10;;;;;;;;;;4894686;29;20045;-91
2022/08/19 02:25:55;;;;;;;0.10;0.10;;;;;;;;;;4878727;29;20046;-89
2022/08/19 02:28:21;;;;;;;0.10;0.10;;;;;;;;;;4894373;29;20045;-89
2022/08/19 02:30:48;;;;;;;0.10;0.10;;;;;;;;;;4894320;29;20102;-89
2022/08/19 02:33:14;;;;;;;0.10;0.10;;;;;;;;;;4893919;29;20140;-89
2022/08/19 02:35:44;;;;;;;0.10;0.10;;;;;;;;;;4878124;29;20417;-90
2022/08/19 02:38:25;;;;;;;0.10;0.10;;;;;;;;;;4878575;29;20059;-89
2022/08/19 02:40:54;;;;;;;0.10;0.10;;;;;;;;;;4875768;29;20128;-89
2022/08/19 02:43:20;;;;;;;0.10;0.10;;;;;;;;;;4893640;29;20413;-90
2022/08/19 02:45:47;;;;;;;0.10;0.10;;;;;;;;;;4893457;29;20223;-90
2022/08/19 02:48:17;;;;;;;0.10;0.10;;;;;;;;;;4893523;29;20100;-90
2022/08/19 02:50:43;;;;;;;0.22;0.22;;;;;;;;;;4877833;29;20556;-90
2022/08/19 02:53:09;;;;;;;0.10;0.10;;;;;;;;;;4893736;29;20044;-90
2022/08/19 02:55:35;;;;;;;0.10;0.10;;;;;;;;;;4878385;29;20080;-90
2022/08/19 02:58:01;;;;;;;0.10;0.10;;;;;;;;;;4877889;29;20052;-90
2022/08/19 03:00:27;;;;;;;0.10;0.10;;;;;;;;;;4893884;29;20065;-90
2022/08/19 03:02:53;;;;;;;0.10;0.10;;;;;;;;;;4877794;29;20044;-89
2022/08/19 03:05:19;;;;;;;0.10;0.10;;;;;;;;;;4877715;29;20079;-90
2022/08/19 03:07:46;;;;;;;0.10;0.10;;;;;;;;;;4893376;29;20049;-89
2022/08/19 03:10:12;;;;;;;0.10;0.10;;;;;;;;;;4877640;29;20041;-90
2022/08/19 03:12:39;;;;;;;0.10;0.10;;;;;;;;;;4893168;29;20041;-89
2022/08/19 03:15:06;;;;;;;0.10;0.10;;;;;;;;;;4893273;29;20055;-87
2022/08/19 03:17:32;;;;;;;0.10;0.10;;;;;;;;;;4877821;29;20184;-89
2022/08/19 03:19:58;;;;;;;0.10;0.10;;;;;;;;;;4893403;29;20128;-88
2022/08/19 03:22:25;;;;;;;0.10;0.10;;;;;;;;;;4893164;29;20136;-88
2022/08/19 03:24:51;;;;;;;0.10;0.10;;;;;;;;;;4892821;29;20092;-88
2022/08/19 03:27:17;;;;;;;0.10;0.10;;;;;;;;;;4862240;29;20053;-89
2022/08/19 03:29:43;;;;;;;0.10;0.10;;;;;;;;;;4892960;29;20041;-89
2022/08/19 03:32:09;;;;;;;0.10;0.10;;;;;;;;;;4892894;29;20048;-89
2022/08/19 03:34:35;;;;;;;0.10;0.10;;;;;;;;;;4877329;29;20048;-89
2022/08/19 03:37:04;;;;;;;0.10;0.10;;;;;;;;;;4877542;29;20474;-89
2022/08/19 03:39:30;;;;;;;0.10;0.10;;;;;;;;;;4892907;29;20092;-88
2022/08/19 03:41:58;;;;;;;0.10;0.10;;;;;;;;;;4892782;29;20080;-89
2022/08/19 03:44:24;;;;;;;0.10;0.10;;;;;;;;;;4876789;29;20041;-89
2022/08/19 03:46:52;;;;;;;0.10;0.10;;;;;;;;;;4892720;29;20109;-88
2022/08/19 03:49:18;;;;;;;0.10;0.10;;;;;;;;;;4877028;29;20218;-88
2022/08/19 03:51:44;;;;;;;0.10;0.10;;;;;;;;;;4891641;29;20044;-89
2022/08/19 03:54:11;;;;;;;0.10;0.10;;;;;;;;;;4892368;29;20109;-88
2022/08/19 03:56:37;;;;;;;0.22;0.20;;;;;;;;;;4892451;29;20056;-90
2022/08/19 03:59:03;;;;;;;0.10;0.10;;;;;;;;;;4876771;29;20096;-90
2022/08/19 04:01:29;;;;;;;0.10;0.10;;;;;;;;;;4892702;29;20485;-90
2022/08/19 04:03:56;;;;;;;0.10;0.10;;;;;;;;;;4876859;29;20501;-89
2022/08/19 04:06:25;;;;;;;0.10;0.10;;;;;;;;;;4892488;29;20362;-89
2022/08/19 04:08:53;;;;;;;0.10;0.10;;;;;;;;;;4877095;29;20033;-89
2022/08/19 04:11:23;;;;;;;0.10;0.10;;;;;;;;;;4876723;29;20084;-89
2022/08/19 04:13:51;;;;;;;0.10;0.10;;;;;;;;;;4891961;29;20037;-89
2022/08/19 04:16:17;;;;;;;0.10;0.10;;;;;;;;;;4892261;29;20576;-89
2022/08/19 04:18:44;;;;;;;0.10;0.10;;;;;;;;;;4892389;29;20127;-89
2022/08/19 04:21:15;;;;;;;0.10;0.10;;;;;;;;;;4892338;29;20124;-89
2022/08/19 04:23:41;;;;;;;0.10;0.10;;;;;;;;;;4877455;29;20041;-89
2022/08/19 04:26:07;;;;;;;0.10;0.10;;;;;;;;;;4876815;29;20045;-89
2022/08/19 04:28:35;;;;;;;0.10;0.10;;;;;;;;;;4892533;29;20096;-89
2022/08/19 04:31:01;;;;;;;0.10;0.10;;;;;;;;;;4892788;29;20067;-89
2022/08/19 04:33:28;;;;;;;0.10;0.10;;;;;;;;;;4876793;29;20037;-90
2022/08/19 04:35:54;;;;;;;0.10;0.10;;;;;;;;;;4892067;29;20049;-89
2022/08/19 04:38:22;;;;;;;0.10;0.10;;;;;;;;;;4876665;29;20077;-89
2022/08/19 04:43:33;;;;;;;0.10;0.10;;;;;;;;;;4890082;29;20049;-89
2022/08/19 04:45:59;;;;;;;0.10;0.10;;;;;;;;;;4891924;29;20045;-89
2022/08/19 04:48:25;;;;;;;0.10;0.10;;;;;;;;;;4876494;29;20061;-89
2022/08/19 04:50:58;;;;;;;0.10;0.10;;;;;;;;;;4892421;29;20045;-89
2022/08/19 04:53:28;;;;;;;0.10;0.10;;;;;;;;;;4875804;29;20053;-89
2022/08/19 04:55:54;;;;;;;0.10;0.10;;;;;;;;;;4892322;29;20128;-89
2022/08/19 04:58:20;;;;;;;0.10;0.10;;;;;;;;;;4892099;29;20511;-89
2022/08/19 05:00:46;;;;;;;0.10;0.10;;;;;;;;;;4876886;29;20045;-90
2022/08/19 05:03:13;;;;;;;0.10;0.10;;;;;;;;;;4893762;29;20489;-91
2022/08/19 05:05:40;;;;;;;0.17;0.17;;;;;;;;;;4880023;29;20076;-92
2022/08/19 05:08:06;;;;;;;0.10;0.10;;;;;;;;;;4911856;29;20127;-92
2022/08/19 05:10:35;;;;;;;0.10;0.10;;;;;;;;;;4880330;29;20408;-91
2022/08/19 05:13:01;;;;;;;0.10;0.10;;;;;;;;;;4895750;29;20055;-91
2022/08/19 05:15:27;;;;;;;0.10;0.10;;;;;;;;;;4895571;29;20575;-93
2022/08/19 05:23:25;;;;;;;0.10;0.10;;;;;;;;;;4893609;29;20135;-92
2022/08/19 05:25:51;;;;;;;0.10;0.10;;;;;;;;;;4895471;29;20515;-91
2022/08/19 05:28:18;;;;;;;0.10;0.10;;;;;;;;;;4879894;29;20136;-93
2022/08/19 05:30:44;;;;;;;0.10;0.10;;;;;;;;;;4864849;29;20045;-92
2022/08/19 05:33:11;;;;;;;0.10;0.10;;;;;;;;;;4880276;29;20176;-93
2022/08/19 05:35:38;;;;;;;0.10;0.10;;;;;;;;;;4879660;29;20048;-92
2022/08/19 05:38:07;;;;;;;0.10;0.10;;;;;;;;;;4880112;29;20052;-93
2022/08/19 05:40:34;;;;;;;0.10;0.10;;;;;;;;;;4879635;29;20097;-90
2022/08/19 05:43:00;;;;;;;0.10;0.10;;;;;;;;;;4895086;29;20391;-88
2022/08/19 05:45:26;;;;;;;0.10;0.10;;;;;;;;;;4879493;29;20048;-88
2022/08/19 05:47:52;;;;;;;0.10;0.10;;;;;;;;;;4894938;29;20409;-89
2022/08/19 05:50:18;;;;;;;0.10;0.10;;;;;;;;;;4895110;29;20489;-89
2022/08/19 05:52:44;;;;;;;0.10;0.10;;;;;;;;;;4894996;29;20045;-90
2022/08/19 05:55:10;;;;;;;0.10;0.10;;;;;;;;;;4894567;29;20462;-90
2022/08/19 05:57:36;;;;;;;0.10;0.10;;;;;;;;;;4879333;29;20065;-92
2022/08/19 06:00:08;;;;;;;0.10;0.10;;;;;;;;;;4879914;29;20113;-89
2022/08/19 06:02:35;;;;;;;0.20;0.20;;;;;;;;;;4894135;29;20177;-89
2022/08/19 06:05:02;;;;;;;0.30;0.30;;;;;;;;;;4894084;29;20048;-89
2022/08/19 06:07:28;;;;;;;0.10;0.10;;;;;;;;;;4894067;29;20045;-90
2022/08/19 06:09:54;;;;;;;0.10;0.10;;;;;;;;;;4894398;29;20053;-91
2022/08/19 06:12:31;;;;;;;0.10;0.10;;;;;;;;;;4878886;29;20051;-90
2022/08/19 06:14:57;;;;;;;0.10;0.10;;;;;;;;;;4876434;29;20473;-89
2022/08/19 06:17:25;;;;;;;0.10;0.10;;;;;;;;;;4879145;29;20430;-90
2022/08/19 06:19:51;;;;;;;0.25;0.25;;;;;;;;;;4879039;29;20401;-90
2022/08/19 06:22:17;;;;;;;0.10;0.10;;;;;;;;;;4894216;29;20082;-90
2022/08/19 06:24:43;;;;;;;0.10;0.10;;;;;;;;;;4878595;29;20121;-88
2022/08/19 06:27:09;;;;;;;0.10;0.10;;;;;;;;;;4910093;29;20064;-88
2022/08/19 06:29:35;;;;;;;0.15;0.15;;;;;;;;;;4894496;29;20075;-87
2022/08/19 06:32:02;;;;;;;0.15;0.15;;;;;;;;;;4894066;29;20074;-89
2022/08/19 06:34:28;;;;;;;0.20;0.20;;;;;;;;;;4894156;29;20072;-88
2022/08/19 06:36:55;;;;;;;0.20;0.20;;;;;;;;;;4894444;29;20405;-89
2022/08/19 06:39:23;;;;;;;0.20;0.20;;;;;;;;;;4892512;29;20068;-90
2022/08/19 06:41:50;;;;;;;0.10;0.10;;;;;;;;;;4878226;29;20041;-89
2022/08/19 06:44:16;;;;;;;0.20;0.20;;;;;;;;;;4885424;29;20119;-89
2022/08/19 06:46:42;;;;;;;0.10;0.10;;;;;;;;;;4882455;29;20049;-90
2022/08/19 06:49:13;;;;;;;0.10;0.10;;;;;;;;;;4910619;29;20509;-91
2022/08/19 06:51:39;;;;;;;0.10;0.10;;;;;;;;;;4910779;29;20116;-91
2022/08/19 06:54:05;;;;;;;0.10;0.10;;;;;;;;;;4894490;29;20060;-90
2022/08/19 06:56:34;;;;;;;0.10;0.10;;;;;;;;;;4883496;29;20128;-89
2022/08/19 06:59:01;;;;;;;0.10;0.10;;;;;;;;;;4878447;29;20386;-90
2022/08/19 07:01:27;;;;;;;0.10;0.10;;;;;;;;;;4894530;29;20077;-91
2022/08/19 07:03:53;;;;;;;0.10;0.10;;;;;;;;;;4894079;29;20045;-91
2022/08/19 07:06:19;;;;;;;0.10;0.10;;;;;;;;;;4879186;29;20077;-91
2022/08/19 07:08:46;;;;;;;0.10;0.10;;;;;;;;;;4895236;29;20047;-91
2022/08/19 07:11:12;;;;;;;0.10;0.10;;;;;;;;;;4894860;29;20041;-89
2022/08/19 07:13:39;;;;;;;0.15;0.15;;;;;;;;;;4898005;29;20124;-91
2022/08/19 07:16:08;;;;;;;0.10;0.10;;;;;;;;;;4932746;28;20033;-92
2022/08/19 07:18:34;;;;;;;0.10;0.10;;;;;;;;;;4900943;29;20049;-91
2022/08/19 07:21:19;;;;;;;0.10;0.10;;;;;;;;;;4914281;29;20053;-91
2022/08/19 07:23:45;;;;;;;0.20;0.20;;;;;;;;;;4914815;29;20041;-91
2022/08/19 07:26:13;;;;;;;0.10;0.10;;;;;;;;;;4931404;28;20049;-92
2022/08/19 07:28:39;;;;;;;0.10;0.10;;;;;;;;;;4916032;29;20044;-91
2022/08/19 07:31:08;;;;;;;0.20;0.20;;;;;;;;;;4916158;29;20037;-91
2022/08/19 07:33:36;;;;;;;0.20;0.20;;;;;;;;;;4931739;28;20037;-91
2022/08/19 07:36:02;;;;;;;0.20;0.20;;;;;;;;;;4915041;29;20072;-91
2022/08/19 07:38:28;;;;;;;0.17;0.17;;;;;;;;;;4892759;29;20104;-91
2022/08/19 07:40:54;;;;;;;0.20;0.20;;;;;;;;;;4892976;29;20446;-92
2022/08/19 07:43:25;;;;;;;0.20;0.20;;;;;;;;;;4908730;29;20136;-89
2022/08/19 07:45:52;;;;;;;0.20;0.20;;;;;;;;;;4877125;29;20049;-90
2022/08/19 07:48:18;;;;;;;0.20;0.20;;;;;;;;;;4892552;29;20056;-91
2022/08/19 07:50:45;;;;;;;0.20;0.20;;;;;;;;;;4908689;29;20131;-91
2022/08/19 07:53:12;;;;;;;0.20;0.20;;;;;;;;;;4892896;29;20033;-90
2022/08/19 07:55:38;;;;;;;0.20;0.20;;;;;;;;;;4877439;29;20057;-90
2022/08/19 07:58:04;;;;;;;0.10;0.10;;;;;;;;;;4908722;29;20523;-90
2022/08/19 08:00:30;;;;;;;0.20;0.20;;;;;;;;;;4908513;29;20123;-89
2022/08/19 08:02:56;;;;;;;0.20;0.20;;;;;;;;;;4892901;29;20091;-90
2022/08/19 08:10:52;;;;;;;0.20;0.20;;;;;;;;;;4908285;29;20053;-89
2022/08/19 08:13:18;;;;;;;0.20;0.20;;;;;;;;;;4877171;29;20055;-90
2022/08/19 08:15:54;;;;;;;0.20;0.20;;;;;;;;;;4884068;29;20059;-95
2022/08/19 08:18:20;;;;;;;0.20;0.20;;;;;;;;;;4911501;29;20190;-91
2022/08/19 08:20:46;;;;;;;0.20;0.20;;;;;;;;;;4911035;29;20048;-90
2022/08/19 08:23:28;;;;;;;0.20;0.20;;;;;;;;;;4911220;29;20052;-90
2022/08/19 08:25:56;;;;;;;0.20;0.20;;;;;;;;;;4893354;29;20092;-90
2022/08/19 08:28:22;;;;;;;0.20;0.20;;;;;;;;;;4911164;29;20047;-90
2022/08/19 08:30:49;;;;;;;0.20;0.20;;;;;;;;;;4911208;29;20457;-90
2022/08/19 08:33:17;;;;;;;0.20;0.20;;;;;;;;;;4911184;29;20079;-91
2022/08/19 08:35:45;;;;;;;0.20;0.20;;;;;;;;;;4911087;29;20044;-91
2022/08/19 08:38:11;;;;;;;0.20;0.20;;;;;;;;;;4929046;29;20109;-91
2022/08/19 08:40:56;;;;;;;0.20;0.20;;;;;;;;;;4899143;29;20053;-90
2022/08/19 08:43:26;;;;;;;0.20;0.20;;;;;;;;;;4899193;29;20040;-91
2022/08/19 08:46:15;;;;;;;0.20;0.20;;;;;;;;;;4930530;29;20079;-90
2022/08/19 08:48:50;;;;;;;0.20;0.20;;;;;;;;;;4914596;29;20104;-90
2022/08/19 08:51:25;;;;;;;0.20;0.20;;;;;;;;;;4915160;29;20083;-91
2022/08/19 08:53:51;;;;;;;0.20;0.20;;;;;;;;;;4898823;29;20051;-91
2022/08/19 08:56:17;;;;;;;0.20;0.20;;;;;;;;;;4914608;29;20051;-91
2022/08/19 08:58:47;;;;;;;0.20;0.20;;;;;;;;;;4898993;29;20519;-92
2022/08/19 09:01:13;;;;;;;0.20;0.20;;;;;;;;;;4914488;29;20040;-91
2022/08/19 09:03:39;;;;;;;0.20;0.20;;;;;;;;;;4914512;29;20587;-91
2022/08/19 09:06:13;;;;;;;0.20;0.20;;;;;;;;;;4914450;29;20124;-92
2022/08/19 09:08:50;;;;;;;0.20;0.20;;;;;;;;;;4914223;29;20047;-90
2022/08/19 09:11:20;;;;;;;0.20;0.20;;;;;;;;;;4901941;29;20041;-92
2022/08/19 09:13:53;;;;;;;0.20;0.20;;;;;;;;;;4898793;29;20389;-92
2022/08/19 09:16:20;;;;;;;0.20;0.20;;;;;;;;;;4914240;29;20041;-92
2022/08/19 09:18:48;;;;;;;0.20;0.20;;;;;;;;;;4885590;29;20044;-93
2022/08/19 09:21:14;;;;;;;0.20;0.20;;;;;;;;;;4882880;29;20122;-92
2022/08/19 09:23:40;;;;;;;0.20;0.20;;;;;;;;;;4914353;29;20052;-91
2022/08/19 09:26:13;;;;;;;0.20;0.20;;;;;;;;;;4898426;29;20136;-92
2022/08/19 09:28:41;;;;;;;0.20;0.20;;;;;;;;;;4898368;29;20051;-91
2022/08/19 09:31:07;;;;;;;0.20;0.20;;;;;;;;;;4898322;29;20078;-92
2022/08/19 09:33:33;;;;;;;0.20;0.20;;;;;;;;;;4898580;29;20045;-95
2022/08/19 09:36:03;;;;;;;0.20;0.20;;;;;;;;;;4898234;29;20040;-92
2022/08/19 09:38:29;;;;;;;0.30;0.30;;;;;;;;;;4929544;29;20049;-93
2022/08/19 09:40:55;;;;;;;0.20;0.20;;;;;;;;;;4913854;29;20131;-92
2022/08/19 09:43:21;;;;;;;0.20;0.20;;;;;;;;;;4898046;29;20045;-91
2022/08/19 09:45:47;;;;;;;0.20;0.20;;;;;;;;;;4897910;29;20052;-93
2022/08/19 09:48:13;;;;;;;0.20;0.20;;;;;;;;;;4897485;29;20068;-92
2022/08/19 09:50:39;;;;;;;0.57;0.40;;;;;;;;;;4865761;29;20809;-91
2022/08/19 09:53:07;;;;;;;0.30;0.30;;;;;;;;;;4867196;29;20104;-91
2022/08/19 09:55:33;;;;;;;0.20;0.20;;;;;;;;;;4866767;29;20485;-90
2022/08/19 09:58:00;;;;;;;0.20;0.20;;;;;;;;;;4866893;29;20048;-90
2022/08/19 10:00:26;;;;;;;0.20;0.20;;;;;;;;;;4882334;29;20056;-91
2022/08/19 10:02:52;;;;;;;0.20;0.20;;;;;;;;;;4878813;29;20091;-92
2022/08/19 10:08:03;;;;;;;0.20;0.20;;;;;;;;;;4866117;29;20055;-92
2022/08/19 10:10:29;;;;;;;0.20;0.20;;;;;;;;;;4848246;29;20041;-92
2022/08/19 10:12:55;;;;;;;0.20;0.20;;;;;;;;;;4863501;29;20128;-92
2022/08/19 10:15:21;;;;;;;0.20;0.20;;;;;;;;;;4848190;29;20445;-92
2022/08/19 10:17:47;;;;;;;0.30;0.30;;;;;;;;;;4848195;29;20048;-93
2022/08/19 10:20:13;;;;;;;0.30;0.30;;;;;;;;;;4863578;29;20140;-93
2022/08/19 10:22:41;;;;;;;0.20;0.20;;;;;;;;;;4848266;29;20493;-93
2022/08/19 10:25:07;;;;;;;0.25;0.25;;;;;;;;;;4863824;29;20419;-93
2022/08/19 10:27:35;;;;;;;0.20;0.20;;;;;;;;;;4877080;29;20037;-91
2022/08/19 10:30:01;;;;;;;0.20;0.20;;;;;;;;;;4881887;29;20044;-92
2022/08/19 10:32:28;;;;;;;0.32;0.32;;;;;;;;;;4869438;29;20040;-92
2022/08/19 10:34:56;;;;;;;0.47;0.30;;;;;;;;;;4863177;29;20205;-92
2022/08/19 10:37:22;;;;;;;0.20;0.20;;;;;;;;;;4847883;29;20053;-91
2022/08/19 10:39:47;;;;;;;0.20;0.20;;;;;;;;;;4848149;29;20104;-93
2022/08/19 10:42:14;;;;;;;0.30;0.30;;;;;;;;;;4847847;29;20040;-91
2022/08/19 10:44:40;;;;;;;0.30;0.30;;;;;;;;;;4847253;29;20049;-94
2022/08/19 10:47:06;;;;;;;0.20;0.20;;;;;;;;;;4872510;29;20071;-91
2022/08/19 10:52:32;;;;;;;0.20;0.20;;;;;;;;;;4912785;29;20192;-92
2022/08/19 10:52:33;;;;;;;0.20;0.20;;;;;;;;;;4894603;29;20139;-89
2022/08/19 10:57:46;;;;;;;0.20;0.20;;;;;;;;;;4912633;29;20515;-89
2022/08/19 11:00:13;;;;;;;0.20;0.20;;;;;;;;;;4912084;29;20049;-90
2022/08/19 11:02:39;;;;;;;0.20;0.20;;;;;;;;;;4896590;29;20044;-89
2022/08/19 11:05:06;;;;;;;0.30;0.30;;;;;;;;;;4896711;29;20177;-89
2022/08/19 11:07:32;;;;;;;0.20;0.20;;;;;;;;;;4912358;29;20040;-90
2022/08/19 11:09:58;;;;;;;0.30;0.30;;;;;;;;;;4912565;29;20419;-90
2022/08/19 11:12:24;;;;;;;0.30;0.30;;;;;;;;;;4896575;29;20032;-91
2022/08/19 11:14:50;;;;;;;0.20;0.20;;;;;;;;;;4912338;29;20400;-90
2022/08/19 11:17:16;;;;;;;0.20;0.20;;;;;;;;;;4896488;29;20127;-90
2022/08/19 11:19:42;;;;;;;0.28;0.28;;;;;;;;;;4896455;29;20083;-89
2022/08/19 11:22:11;;;;;;;0.20;0.20;;;;;;;;;;4912470;29;20072;-90
2022/08/19 11:24:37;;;;;;;0.20;0.20;;;;;;;;;;4896262;29;20049;-90
2022/08/19 11:27:05;;;;;;;0.20;0.20;;;;;;;;;;4896339;29;20480;-89
2022/08/19 11:29:31;;;;;;;0.28;0.28;;;;;;;;;;4896451;29;20144;-89
2022/08/19 11:31:57;;;;;;;0.40;0.40;;;;;;;;;;4912440;29;20475;-90
2022/08/19 11:34:25;;;;;;;0.20;0.20;;;;;;;;;;4880802;29;20076;-91
2022/08/19 11:36:51;;;;;;;0.20;0.20;;;;;;;;;;4896587;29;20075;-89
2022/08/19 11:39:18;;;;;;;0.20;0.20;;;;;;;;;;4879892;29;20124;-90
2022/08/19 11:41:44;;;;;;;0.20;0.20;;;;;;;;;;4897669;29;20242;-90
2022/08/19 11:44:09;;;;;;;0.20;0.20;;;;;;;;;;4911878;29;20044;-89
2022/08/19 11:46:36;;;;;;;0.20;0.20;;;;;;;;;;4911656;29;20198;-90
2022/08/19 11:49:03;;;;;;;0.20;0.20;;;;;;;;;;4911874;29;20477;-90
2022/08/19 11:51:29;;;;;;;0.40;0.40;;;;;;;;;;4911896;29;20486;-90
2022/08/19 11:53:55;;;;;;;0.20;0.20;;;;;;;;;;4880476;29;20079;-89
2022/08/19 11:56:21;;;;;;;0.20;0.20;;;;;;;;;;4911912;29;20131;-90
2022/08/19 11:58:47;;;;;;;0.30;0.30;;;;;;;;;;4880541;29;20385;-89
2022/08/19 12:01:15;;;;;;;0.20;0.20;;;;;;;;;;4911643;29;20096;-89
2022/08/19 12:03:41;;;;;;;0.20;0.20;;;;;;;;;;4911544;29;20053;-90
2022/08/19 12:06:08;;;;;;;0.28;0.28;;;;;;;;;;4911330;29;20060;-89
2022/08/19 12:08:34;;;;;;;0.63;0.60;;;;;;;;;;4897404;29;20037;-88
2022/08/19 12:11:03;;;;;;;0.20;0.20;;;;;;;;;;4911701;29;20143;-89
2022/08/19 12:13:29;;;;;;;0.20;0.20;;;;;;;;;;4896527;29;20041;-88
2022/08/19 12:15:55;;;;;;;0.20;0.20;;;;;;;;;;4911595;29;20055;-88
2022/08/19 12:18:22;;;;;;;0.20;0.20;;;;;;;;;;4880098;29;20485;-88
2022/08/19 12:20:48;;;;;;;0.20;0.20;;;;;;;;;;4897099;29;20120;-91
2022/08/19 12:23:14;;;;;;;0.20;0.20;;;;;;;;;;4895693;29;20496;-89
2022/08/19 12:25:49;;;;;;;0.20;0.20;;;;;;;;;;4911381;29;20048;-88
2022/08/19 12:28:16;;;;;;;0.20;0.20;;;;;;;;;;4879596;29;20047;-90
2022/08/19 12:30:41;;;;;;;2.30;0.40;;;;;;;;;;4911699;29;20378;-89
2022/08/19 12:33:08;;;;;;;0.20;0.20;;;;;;;;;;4911516;29;20045;-88
2022/08/19 12:35:34;;;;;;;0.20;0.20;;;;;;;;;;4911285;29;20530;-89
2022/08/19 12:38:02;;;;;;;0.20;0.20;;;;;;;;;;4911375;29;20044;-89
2022/08/19 12:40:29;;;;;;;0.20;0.20;;;;;;;;;;4895541;29;20131;-88
2022/08/19 12:42:55;;;;;;;0.20;0.20;;;;;;;;;;4895747;29;20135;-89
2022/08/19 12:45:22;;;;;;;0.13;0.13;;;;;;;;;;4895288;29;20548;-90
2022/08/19 12:47:49;;;;;;;0.17;0.17;;;;;;;;;;4892384;29;20072;-89
2022/08/19 12:50:15;;;;;;;0.10;0.10;;;;;;;;;;4907803;29;20123;-88
2022/08/19 12:52:42;;;;;;;0.20;0.20;;;;;;;;;;4892055;29;20504;-88
2022/08/19 12:55:08;;;;;;;0.32;0.32;;;;;;;;;;4907618;29;20056;-89
2022/08/19 12:57:35;;;;;;;0.17;0.17;;;;;;;;;;4892297;29;20446;-88
2022/08/19 13:00:12;;;;;;;0.17;0.17;;;;;;;;;;4876519;29;20140;-89
2022/08/19 13:02:43;;;;;;;0.17;0.17;;;;;;;;;;4907888;29;20157;-88
2022/08/19 13:05:10;;;;;;;;;;;;;;;;;;4908095;29;20060;-87
2022/08/19 13:07:38;;;;;;;0.20;0.20;;;;;;;;;;4860901;29;19923;-88
2022/08/19 13:10:04;;;;;;;0.15;0.15;;;;;;;;;;4876455;29;20045;-88
2022/08/19 13:12:30;;;;;;;0.10;0.10;;;;;;;;;;4907731;29;20041;-90
2022/08/19 13:14:56;;;;;;;0.20;0.20;;;;;;;;;;4892311;29;20484;-91
2022/08/19 13:17:22;;;;;;;0.20;0.20;;;;;;;;;;4906277;29;20049;-92
2022/08/19 13:19:50;;;;;;;0.20;0.20;;;;;;;;;;4892447;29;20045;-92
2022/08/19 13:22:16;;;;;;;0.17;0.17;;;;;;;;;;4908215;29;20057;-91
2022/08/19 13:24:42;;;;;;;0.20;0.20;;;;;;;;;;4909799;29;20409;-91
2022/08/19 13:27:08;;;;;;;0.20;0.20;;;;;;;;;;4895395;29;20037;-91
2022/08/19 13:35:03;;;;;;;0.20;0.20;;;;;;;;;;4895480;29;20049;-91
2022/08/19 13:37:41;;;;;;;0.10;0.10;;;;;;;;;;4911114;29;20485;-92
2022/08/19 13:40:12;;;;;;;0.15;0.15;;;;;;;;;;4895432;29;20057;-93
2022/08/19 13:42:38;;;;;;;0.20;0.20;;;;;;;;;;4879892;29;20053;-92
2022/08/19 13:45:06;;;;;;;0.20;0.20;;;;;;;;;;4894887;29;20045;-93
2022/08/19 13:47:42;;;;;;;0.30;0.30;;;;;;;;;;4894895;29;20053;-93
2022/08/19 13:50:08;;;;;;;0.10;0.10;;;;;;;;;;4864447;29;20045;-95
2022/08/19 13:52:34;;;;;;;0.10;0.10;;;;;;;;;;4895772;29;20523;-94
2022/08/19 13:55:00;;;;;;;0.20;0.20;;;;;;;;;;4895225;29;20053;-93
2022/08/19 13:57:27;;;;;;;0.20;0.20;;;;;;;;;;4896688;29;20045;-95
2022/08/19 13:59:53;;;;;;;0.10;0.10;;;;;;;;;;4895903;29;20323;-94
2022/08/19 14:02:19;;;;;;;0.20;0.20;;;;;;;;;;4864573;29;20053;-93
2022/08/19 14:04:45;;;;;;;0.20;0.20;;;;;;;;;;4894851;29;20140;-92
2022/08/19 14:07:11;;;;;;;0.20;0.20;;;;;;;;;;4894947;29;20044;-92
2022/08/19 14:09:37;;;;;;;0.20;0.20;;;;;;;;;;4879247;29;20406;-91
2022/08/19 14:12:04;;;;;;;0.20;0.20;;;;;;;;;;4895100;29;20052;-91
2022/08/19 14:14:30;;;;;;;0.20;0.20;;;;;;;;;;4879295;29;20041;-91
2022/08/19 14:16:56;;;;;;;0.20;0.20;;;;;;;;;;4910472;29;20041;-92
2022/08/19 14:19:23;;;;;;;0.30;0.30;;;;;;;;;;4910453;29;20043;-92
2022/08/19 14:21:49;;;;;;;0.20;0.20;;;;;;;;;;4910491;29;20462;-91
2022/08/19 14:24:15;;;;;;;0.17;0.17;;;;;;;;;;4910408;29;20045;-91
2022/08/19 14:26:41;;;;;;;0.10;0.10;;;;;;;;;;4910067;29;20073;-91
2022/08/19 14:29:07;;;;;;;0.20;0.20;;;;;;;;;;4910275;29;20075;-91
2022/08/19 14:31:33;;;;;;;0.20;0.20;;;;;;;;;;4910062;29;20051;-91
2022/08/19 14:33:59;;;;;;;0.20;0.20;;;;;;;;;;4909864;29;20048;-91
2022/08/19 14:36:26;;;;;;;0.32;0.32;;;;;;;;;;4893744;29;20136;-92
2022/08/19 14:38:53;;;;;;;0.20;0.20;;;;;;;;;;4910086;29;20055;-91
2022/08/19 14:41:22;;;;;;;0.10;0.10;;;;;;;;;;4892625;29;20087;-91
2022/08/19 14:43:49;;;;;;;0.10;0.10;;;;;;;;;;4909545;29;20048;-91
2022/08/19 14:46:16;;;;;;;0.10;0.10;;;;;;;;;;4910674;29;20140;-91
2022/08/19 14:48:42;;;;;;;0.20;0.20;;;;;;;;;;4893997;29;20049;-92
2022/08/19 14:51:08;;;;;;;0.10;0.10;;;;;;;;;;4909720;29;20055;-91
2022/08/19 14:53:34;;;;;;;0.20;0.20;;;;;;;;;;4909865;29;20051;-91
2022/08/19 14:56:01;;;;;;;0.10;0.10;;;;;;;;;;4893985;29;20131;-90
2022/08/19 14:58:27;;;;;;;0.10;0.10;;;;;;;;;;4893728;29;20040;-90
2022/08/19 15:00:53;;;;;;;0.15;0.15;;;;;;;;;;4893674;29;20308;-90
2022/08/19 15:03:19;;;;;;;0.35;0.35;;;;;;;;;;4893764;29;20101;-90
2022/08/19 15:05:46;;;;;;;0.17;0.17;;;;;;;;;;4877725;29;20501;-90
2022/08/19 15:08:12;;;;;;;0.20;0.20;;;;;;;;;;4908970;29;20505;-91